createdAt,value
2019-04-27T00:02:18.200Z,100788.30
2019-04-27T00:05:06.672Z,100795.55
2019-04-27T00:07:51.466Z,100791.98
2019-04-27T00:10:43.662Z,100775.80
2019-04-27T00:13:12.988Z,100763.30
2019-04-27T00:16:09.708Z,100764.17
2019-04-27T00:18:59.953Z,100765.16
2019-04-27T00:21:43.149Z,100775.44
2019-04-27T00:24:13.420Z,100771.39
2019-04-27T00:26:49.035Z,100758.06
2019-04-27T00:29:26.014Z,100764.65
2019-04-27T00:31:55.723Z,100773.72
2019-04-27T00:34:31.353Z,100768.84
2019-04-27T00:37:28.028Z,100769.68
2019-04-27T00:40:07.118Z,100774.34
2019-04-27T00:42:35.850Z,100767.61
2019-04-27T00:45:13.506Z,100771.17
2019-04-27T00:47:54.646Z,100756.34
2019-04-27T00:50:19.581Z,100760.87
2019-04-27T00:52:55.231Z,100755.63
2019-04-27T00:55:30.128Z,100759.52
2019-04-27T00:58:37.157Z,100749.72
2019-04-27T01:01:14.936Z,100748.38
2019-04-27T01:03:56.978Z,100748.02
2019-04-27T01:06:25.713Z,100754.75
2019-04-27T01:09:01.144Z,100761.49
2019-04-27T01:11:29.771Z,100755.63
2019-04-27T01:14:12.830Z,100763.35
2019-04-27T01:16:41.474Z,100770.93
2019-04-27T01:19:18.957Z,100780.00
2019-04-27T01:21:47.304Z,100797.53
2019-04-27T01:24:22.926Z,100806.60
2019-04-27T01:27:08.778Z,100810.14
2019-04-27T01:29:43.936Z,100816.04
2019-04-27T01:32:14.484Z,100815.17
2019-04-27T01:34:50.048Z,100814.69
2019-04-27T01:37:19.590Z,100812.98
2019-04-27T01:39:55.924Z,100818.38
2019-04-27T01:42:24.488Z,100810.76
2019-04-27T01:44:59.552Z,100811.63
2019-04-27T01:47:28.954Z,100821.91
2019-04-27T01:50:04.023Z,100826.58
2019-04-27T01:52:32.597Z,100825.59
2019-04-27T01:55:14.222Z,100828.80
2019-04-27T01:57:49.204Z,100831.97
2019-04-27T02:00:42.037Z,100836.52
2019-04-27T02:03:12.327Z,100850.36
2019-04-27T02:05:52.675Z,100852.19
2019-04-27T02:08:28.687Z,100843.27
2019-04-27T02:11:03.629Z,100845.95
2019-04-27T02:13:41.443Z,100844.72
2019-04-27T02:16:18.671Z,100845.59
2019-04-27T02:18:48.827Z,100835.79
2019-04-27T02:21:23.671Z,100823.16
2019-04-27T02:23:52.252Z,100829.42
2019-04-27T02:26:27.101Z,100831.75
2019-04-27T02:29:20.622Z,100830.77
2019-04-27T02:32:20.176Z,100832.22
2019-04-27T02:35:00.354Z,100829.89
2019-04-27T02:37:35.964Z,100828.18
2019-04-27T02:40:14.136Z,100821.44
2019-04-27T02:42:54.580Z,100816.56
2019-04-27T02:45:22.210Z,100819.25
2019-04-27T02:47:59.799Z,100818.27
2019-04-27T02:50:29.313Z,100834.08
2019-04-27T02:53:04.389Z,100834.08
2019-04-27T02:55:39.773Z,100830.52
2019-04-27T02:58:21.676Z,100823.77
2019-04-27T03:00:50.326Z,100835.06
2019-04-27T03:03:25.420Z,100837.40
2019-04-27T03:05:53.955Z,100835.06
2019-04-27T03:08:29.474Z,100839.11
2019-04-27T03:11:04.119Z,100851.24
2019-04-27T03:13:49.420Z,100853.58
2019-04-27T03:16:44.404Z,100857.62
2019-04-27T03:19:36.477Z,100860.31
2019-04-27T03:22:24.058Z,100864.83
2019-04-27T03:25:25.374Z,100882.72
2019-04-27T03:27:55.468Z,100875.77
2019-04-27T03:30:35.123Z,100881.52
2019-04-27T03:33:03.076Z,100876.60
2019-04-27T03:35:42.287Z,100868.63
2019-04-27T03:38:10.589Z,100870.37
2019-04-27T03:40:44.766Z,100867.67
2019-04-27T03:43:20.351Z,100873.91
2019-04-27T03:45:55.865Z,100863.63
2019-04-27T03:48:24.402Z,100858.23
2019-04-27T03:51:06.784Z,100857.37
2019-04-27T03:53:57.196Z,100857.84
2019-04-27T03:57:02.619Z,100865.45
2019-04-27T04:00:00.019Z,100861.88
2019-04-27T04:02:30.174Z,100864.98
2019-04-27T04:04:59.885Z,100855.14
2019-04-27T04:07:35.603Z,100850.27
2019-04-27T04:10:19.497Z,100859.59
2019-04-27T04:12:55.917Z,100855.66
2019-04-27T04:15:40.571Z,100860.53
2019-04-27T04:18:15.356Z,100859.70
2019-04-27T04:20:51.197Z,100870.37
2019-04-27T04:23:20.471Z,100871.83
2019-04-27T04:25:56.493Z,100865.56
2019-04-27T04:28:25.045Z,100863.74
2019-04-27T04:30:53.600Z,100862.39
2019-04-27T04:33:30.378Z,100868.63
2019-04-27T04:35:59.841Z,100865.20
2019-04-27T04:38:35.415Z,100872.67
2019-04-27T04:41:13.215Z,100876.71
2019-04-27T04:43:54.130Z,100869.97
2019-04-27T04:46:45.550Z,100875.36
2019-04-27T04:49:14.108Z,100879.05
2019-04-27T04:51:50.370Z,100880.39
2019-04-27T04:54:20.239Z,100874.16
2019-04-27T04:57:01.854Z,100880.90
2019-04-27T04:59:38.901Z,100875.51
2019-04-27T05:02:13.272Z,100888.48
2019-04-27T05:04:41.818Z,100895.22
2019-04-27T05:07:19.281Z,100883.59
2019-04-27T05:10:01.860Z,100882.25
2019-04-27T05:12:30.687Z,100880.53
2019-04-27T05:15:05.384Z,100877.84
2019-04-27T05:17:40.214Z,100878.67
2019-04-27T05:20:29.350Z,100880.90
2019-04-27T05:23:04.131Z,100883.95
2019-04-27T05:25:32.692Z,100892.05
2019-04-27T05:28:09.726Z,100885.78
2019-04-27T05:30:39.155Z,100888.48
2019-04-27T05:33:13.956Z,100903.30
2019-04-27T05:35:42.482Z,100902.94
2019-04-27T05:38:19.124Z,100906.00
2019-04-27T05:40:49.703Z,100913.61
2019-04-27T05:43:30.182Z,100901.95
2019-04-27T05:46:35.663Z,100903.67
2019-04-27T05:49:10.536Z,100896.56
2019-04-27T05:51:40.560Z,100903.67
2019-04-27T05:54:15.511Z,100910.81
2019-04-27T05:56:44.058Z,100903.67
2019-04-27T05:59:25.847Z,100905.89
2019-04-27T06:01:54.395Z,100907.71
2019-04-27T06:04:29.855Z,100910.81
2019-04-27T06:07:00.861Z,100912.52
2019-04-27T06:09:42.199Z,100914.85
2019-04-27T06:12:10.786Z,100909.83
2019-04-27T06:14:45.975Z,100907.97
2019-04-27T06:17:14.543Z,100913.36
2019-04-27T06:19:50.129Z,100908.84
2019-04-27T06:22:19.024Z,100911.53
2019-04-27T06:24:54.608Z,100910.55
2019-04-27T06:27:23.235Z,100907.34
2019-04-27T06:29:59.360Z,100909.57
2019-04-27T06:32:29.626Z,100905.52
2019-04-27T06:35:05.407Z,100903.19
2019-04-27T06:37:40.321Z,100905.02
2019-04-27T06:40:15.206Z,100903.30
2019-04-27T06:42:43.761Z,100919.00
2019-04-27T06:45:19.708Z,100922.54
2019-04-27T06:47:48.842Z,100917.66
2019-04-27T06:50:25.567Z,100913.25
2019-04-27T06:52:54.130Z,100915.33
2019-04-27T06:55:29.233Z,100922.91
2019-04-27T06:58:04.603Z,100921.19
2019-04-27T07:00:46.259Z,100923.78
2019-04-27T07:03:16.180Z,100918.39
2019-04-27T07:05:53.046Z,100920.72
2019-04-27T07:08:30.866Z,100929.17
2019-04-27T07:11:11.174Z,100942.28
2019-04-27T07:13:44.067Z,100935.18
2019-04-27T07:16:19.728Z,100934.67
2019-04-27T07:18:48.369Z,100930.99
2019-04-27T07:21:24.947Z,100926.47
2019-04-27T07:23:59.804Z,100922.43
2019-04-27T07:26:35.388Z,100924.61
2019-04-27T07:29:03.939Z,100924.61
2019-04-27T07:31:40.024Z,100926.47
2019-04-27T07:34:09.463Z,100930.01
2019-04-27T07:36:44.967Z,100933.95
2019-04-27T07:39:13.525Z,100932.23
2019-04-27T07:41:48.980Z,100930.88
2019-04-27T07:44:32.867Z,100939.70
2019-04-27T07:47:45.248Z,100929.75
2019-04-27T07:50:20.861Z,100931.61
2019-04-27T07:52:49.496Z,100919.48
2019-04-27T07:55:24.573Z,100919.84
2019-04-27T07:57:53.175Z,100922.54
2019-04-27T08:00:35.670Z,100919.48
2019-04-27T08:03:04.266Z,100914.45
2019-04-27T08:05:39.814Z,100926.58
2019-04-27T08:08:10.054Z,100927.94
2019-04-27T08:10:51.012Z,100921.67
2019-04-27T08:13:20.360Z,100921.08
2019-04-27T08:15:55.723Z,100927.82
2019-04-27T08:18:24.332Z,100922.43
2019-04-27T08:20:59.369Z,100926.33
2019-04-27T08:23:29.469Z,100923.63
2019-04-27T08:25:58.890Z,100915.07
2019-04-27T08:28:56.103Z,100912.38
2019-04-27T08:31:40.282Z,100909.53
2019-04-27T08:34:29.532Z,100891.17
2019-04-27T08:37:05.062Z,100893.24
2019-04-27T08:39:33.676Z,100896.78
2019-04-27T08:42:09.548Z,100899.00
2019-04-27T08:44:39.746Z,100902.17
2019-04-27T08:47:15.166Z,100902.06
2019-04-27T08:49:43.731Z,100899.36
2019-04-27T08:52:20.194Z,100909.28
2019-04-27T08:54:51.105Z,100896.66
2019-04-27T08:57:26.361Z,100899.58
2019-04-27T09:00:00.993Z,100904.39
2019-04-27T09:02:47.080Z,100899.36
2019-04-27T09:05:13.540Z,100904.75
2019-04-27T09:07:54.268Z,100901.91
2019-04-27T09:10:40.255Z,100903.91
2019-04-27T09:13:22.812Z,100894.91
2019-04-27T09:15:56.232Z,100896.25
2019-04-27T09:18:33.533Z,100897.24
2019-04-27T09:21:03.020Z,100886.59
2019-04-27T09:23:38.979Z,100889.41
2019-04-27T09:26:14.502Z,100893.97
2019-04-27T09:28:43.083Z,100885.88
2019-04-27T09:31:19.600Z,100895.47
2019-04-27T09:33:48.249Z,100901.37
2019-04-27T09:36:16.889Z,100898.44
2019-04-27T09:38:46.534Z,100895.97
2019-04-27T09:41:16.955Z,100909.59
2019-04-27T09:43:46.619Z,100898.80
2019-04-27T09:46:15.799Z,100898.79
2019-04-27T09:48:44.356Z,100899.88
2019-04-27T09:51:13.309Z,100895.73
2019-04-27T09:53:41.966Z,100896.38
2019-04-27T09:56:10.597Z,100900.89
2019-04-27T09:58:39.166Z,100897.83
2019-04-27T10:01:07.759Z,100883.34
2019-04-27T10:03:37.279Z,100883.59
2019-04-27T10:06:06.046Z,100885.16
2019-04-27T10:08:36.537Z,100886.86
2019-04-27T10:11:05.977Z,100893.23
2019-04-27T10:13:36.414Z,100882.19
2019-04-27T10:16:05.290Z,100885.10
2019-04-27T10:18:33.866Z,100877.77
2019-04-27T10:21:02.477Z,100875.33
2019-04-27T10:23:31.088Z,100875.06
2019-04-27T10:25:59.648Z,100874.45
2019-04-27T10:28:28.397Z,100872.84
2019-04-27T10:30:56.994Z,100875.30
2019-04-27T10:33:26.897Z,100875.78
2019-04-27T10:35:56.660Z,100880.54
2019-04-27T10:38:25.871Z,100879.17
2019-04-27T10:40:54.709Z,100876.94
2019-04-27T10:43:23.307Z,100875.33
2019-04-27T10:45:51.854Z,100873.96
2019-04-27T10:48:20.448Z,100872.20
2019-04-27T10:50:49.056Z,100870.34
2019-04-27T10:53:17.664Z,100867.14
2019-04-27T10:55:46.530Z,100871.80
2019-04-27T10:58:15.050Z,100869.81
2019-04-27T11:00:48.821Z,100874.59
2019-04-27T11:03:20.077Z,100874.47
2019-04-27T11:06:02.253Z,100871.62
2019-04-27T11:08:32.184Z,100870.52
2019-04-27T11:11:00.786Z,100872.70
2019-04-27T11:13:30.049Z,100865.12
2019-04-27T11:15:58.586Z,100863.77
2019-04-27T11:18:27.250Z,100866.59
2019-04-27T11:20:56.768Z,100867.31
2019-04-27T11:23:26.088Z,100860.44
2019-04-27T11:25:54.862Z,100860.17
2019-04-27T11:28:23.437Z,100857.95
2019-04-27T11:30:52.159Z,100850.57
2019-04-27T11:33:20.757Z,100857.33
2019-04-27T11:36:11.371Z,100851.33
2019-04-27T11:38:39.977Z,100846.28
2019-04-27T11:41:08.566Z,100841.99
2019-04-27T11:43:37.153Z,100852.16
2019-04-27T11:46:06.218Z,100849.44
2019-04-27T11:48:36.156Z,100840.06
2019-04-27T11:51:04.807Z,100843.84
2019-04-27T11:53:33.496Z,100841.50
2019-04-27T11:56:02.385Z,100840.60
2019-04-27T11:58:31.019Z,100839.77
2019-04-27T12:00:59.615Z,100837.66
2019-04-27T12:03:28.190Z,100836.66
2019-04-27T12:06:00.068Z,100846.13
2019-04-27T12:08:27.079Z,100837.54
2019-04-27T12:10:55.828Z,100834.48
2019-04-27T12:13:25.938Z,100830.22
2019-04-27T12:15:54.600Z,100825.39
2019-04-27T12:18:23.228Z,100825.62
2019-04-27T12:20:51.832Z,100825.86
2019-04-27T12:23:32.735Z,100819.94
2019-04-27T12:25:51.018Z,100821.81
2019-04-27T12:28:28.359Z,100815.77
2019-04-27T12:31:25.834Z,100813.70
2019-04-27T12:33:56.039Z,100815.50
2019-04-27T12:36:25.817Z,100810.13
2019-04-27T12:38:54.519Z,100811.41
2019-04-27T12:41:23.041Z,100802.22
2019-04-27T12:43:51.632Z,100803.33
2019-04-27T12:46:20.192Z,100809.73
2019-04-27T12:48:48.777Z,100807.30
2019-04-27T12:51:17.447Z,100806.58
2019-04-27T12:53:58.828Z,100803.64
2019-04-27T12:56:37.257Z,100802.17
2019-04-27T12:59:20.430Z,100801.54
2019-04-27T13:01:49.076Z,100798.48
2019-04-27T13:04:19.394Z,100797.77
2019-04-27T13:06:48.269Z,100787.80
2019-04-27T13:09:17.326Z,100791.37
2019-04-27T13:11:46.593Z,100784.82
2019-04-27T13:14:16.369Z,100789.39
2019-04-27T13:16:45.727Z,100791.73
2019-04-27T13:19:15.826Z,100792.09
2019-04-27T13:21:44.453Z,100788.67
2019-04-27T13:24:13.076Z,100792.36
2019-04-27T13:26:41.630Z,100792.36
2019-04-27T13:29:10.186Z,100790.66
2019-04-27T13:31:38.786Z,100794.70
2019-04-27T13:34:07.344Z,100790.66
2019-04-27T13:36:36.802Z,100791.64
2019-04-27T13:39:06.604Z,100791.28
2019-04-27T13:41:35.915Z,100788.94
2019-04-27T13:44:06.441Z,100787.23
2019-04-27T13:46:55.882Z,100790.30
2019-04-27T13:49:36.898Z,100786.72
2019-04-27T13:52:23.201Z,100786.36
2019-04-27T13:54:51.738Z,100788.58
2019-04-27T13:57:20.343Z,100786.88
2019-04-27T13:59:48.895Z,100786.36
2019-04-27T14:02:19.213Z,100787.08
2019-04-27T14:04:47.798Z,100787.95
2019-04-27T14:07:17.735Z,100784.02
2019-04-27T14:09:48.649Z,100780.69
2019-04-27T14:12:21.261Z,100778.50
2019-04-27T14:14:51.250Z,100774.66
2019-04-27T14:17:19.880Z,100775.02
2019-04-27T14:19:48.476Z,100774.17
2019-04-27T14:22:18.232Z,100769.25
2019-04-27T14:24:48.764Z,100770.60
2019-04-27T14:27:18.436Z,100769.61
2019-04-27T14:29:48.884Z,100771.47
2019-04-27T14:32:18.776Z,100767.78
2019-04-27T14:34:50.070Z,100768.63
2019-04-27T14:37:18.630Z,100767.78
2019-04-27T14:39:47.464Z,100765.67
2019-04-27T14:42:16.151Z,100763.09
2019-04-27T14:44:44.745Z,100762.98
2019-04-27T14:47:13.398Z,100768.38
2019-04-27T14:49:41.969Z,100773.27
2019-04-27T14:52:10.587Z,100782.72
2019-04-27T14:54:47.288Z,100778.03
2019-04-27T14:57:09.500Z,100778.11
2019-04-27T14:59:38.456Z,100779.83
2019-04-27T15:02:08.699Z,100773.07
2019-04-27T15:04:39.749Z,100768.81
2019-04-27T15:07:08.470Z,100767.11
2019-04-27T15:09:37.195Z,100769.66
2019-04-27T15:12:05.815Z,100763.26
2019-04-27T15:14:34.360Z,100752.81
2019-04-27T15:17:04.675Z,100751.82
2019-04-27T15:19:38.740Z,100751.34
2019-04-27T15:22:12.680Z,100754.16
2019-04-27T15:24:41.231Z,100751.97
2019-04-27T15:27:11.243Z,100756.86
2019-04-27T15:29:39.854Z,100749.13
2019-04-27T15:32:13.041Z,100753.92
2019-04-27T15:34:48.302Z,100742.13
2019-04-27T15:37:41.799Z,100744.19
2019-04-27T15:40:28.918Z,100738.86
2019-04-27T15:43:09.248Z,100737.98
2019-04-27T15:45:38.925Z,100732.51
2019-04-27T15:48:08.420Z,100735.84
2019-04-27T15:50:38.642Z,100739.54
2019-04-27T15:53:12.343Z,100737.36
2019-04-27T15:55:39.577Z,100736.36
2019-04-27T15:58:09.742Z,100728.86
2019-04-27T16:00:38.599Z,100740.05
2019-04-27T16:03:09.879Z,100737.84
2019-04-27T16:05:40.178Z,100726.39
2019-04-27T16:08:15.274Z,100728.69
2019-04-27T16:10:40.565Z,100726.06
2019-04-27T16:13:14.767Z,100724.08
2019-04-27T16:15:39.764Z,100722.45
2019-04-27T16:18:08.854Z,100722.09
2019-04-27T16:20:38.083Z,100720.73
2019-04-27T16:23:08.761Z,100722.09
2019-04-27T16:25:47.769Z,100721.73
2019-04-27T16:28:09.628Z,100720.38
2019-04-27T16:30:39.137Z,100717.56
2019-04-27T16:33:08.681Z,100711.64
2019-04-27T16:35:38.706Z,100713.27
2019-04-27T16:38:38.802Z,100702.75
2019-04-27T16:41:08.167Z,100701.39
2019-04-27T16:43:38.529Z,100705.09
2019-04-27T16:46:08.779Z,100706.44
2019-04-27T16:48:39.042Z,100701.16
2019-04-27T16:51:08.706Z,100714.19
2019-04-27T16:53:41.007Z,100715.19
2019-04-27T16:56:14.504Z,100720.95
2019-04-27T16:58:39.532Z,100713.95
2019-04-27T17:01:10.739Z,100711.41
2019-04-27T17:03:41.413Z,100717.17
2019-04-27T17:06:10.307Z,100722.06
2019-04-27T17:08:39.985Z,100722.22
2019-04-27T17:11:13.498Z,100731.56
2019-04-27T17:13:44.306Z,100723.38
2019-04-27T17:16:24.604Z,100709.80
2019-04-27T17:19:04.607Z,100727.63
2019-04-27T17:21:28.792Z,100721.52
2019-04-27T17:24:02.835Z,100716.75
2019-04-27T17:26:29.217Z,100721.79
2019-04-27T17:29:03.760Z,100723.27
2019-04-27T17:31:34.017Z,100723.42
2019-04-27T17:34:02.715Z,100727.11
2019-04-27T17:36:31.307Z,100725.37
2019-04-27T17:38:59.873Z,100721.95
2019-04-27T17:41:28.497Z,100722.23
2019-04-27T17:43:58.906Z,100719.69
2019-04-27T17:46:28.195Z,100720.67
2019-04-27T17:48:59.995Z,100725.20
2019-04-27T17:51:30.540Z,100728.90
2019-04-27T17:53:58.666Z,100724.13
2019-04-27T17:56:34.088Z,100726.44
2019-04-27T17:58:58.614Z,100720.95
2019-04-27T18:01:30.112Z,100721.95
2019-04-27T18:04:00.155Z,100721.23
2019-04-27T18:06:29.687Z,100723.56
2019-04-27T18:09:00.834Z,100720.99
2019-04-27T18:11:28.934Z,100718.41
2019-04-27T18:14:00.478Z,100718.56
2019-04-27T18:16:33.787Z,100725.95
2019-04-27T18:19:11.517Z,100720.66
2019-04-27T18:21:43.974Z,100720.82
2019-04-27T18:24:18.538Z,100720.46
2019-04-27T18:27:00.761Z,100720.94
2019-04-27T18:29:27.664Z,100717.52
2019-04-27T18:31:54.753Z,100720.22
2019-04-27T18:34:23.472Z,100724.03
2019-04-27T18:36:52.117Z,100726.73
2019-04-27T18:39:20.944Z,100731.29
2019-04-27T18:41:54.098Z,100733.62
2019-04-27T18:44:23.942Z,100734.26
2019-04-27T18:46:53.636Z,100738.42
2019-04-27T18:49:34.411Z,100737.59
2019-04-27T18:52:28.112Z,100747.52
2019-04-27T18:54:56.821Z,100748.50
2019-04-27T18:57:25.879Z,100754.38
2019-04-27T18:59:54.464Z,100752.66
2019-04-27T19:02:24.323Z,100755.87
2019-04-27T19:04:54.993Z,100755.00
2019-04-27T19:07:26.388Z,100755.63
2019-04-27T19:09:56.725Z,100762.37
2019-04-27T19:12:25.586Z,100762.02
2019-04-27T19:14:54.223Z,100762.53
2019-04-27T19:17:22.847Z,100767.05
2019-04-27T19:19:51.553Z,100768.41
2019-04-27T19:22:20.145Z,100782.41
2019-04-27T19:24:48.798Z,100793.31
2019-04-27T19:27:25.151Z,100789.27
2019-04-27T19:29:58.783Z,100789.27
2019-04-27T19:32:28.232Z,100792.95
2019-04-27T19:34:56.834Z,100788.19
2019-04-27T19:37:25.697Z,100786.33
2019-04-27T19:39:54.480Z,100787.31
2019-04-27T19:42:23.247Z,100794.57
2019-04-27T19:44:51.895Z,100793.34
2019-04-27T19:47:20.671Z,100803.65
2019-04-27T19:49:49.394Z,100799.24
2019-04-27T19:52:18.419Z,100805.63
2019-04-27T19:54:47.078Z,100805.63
2019-04-27T19:57:29.278Z,100808.80
2019-04-27T19:59:51.249Z,100812.84
2019-04-27T20:02:22.076Z,100813.36
2019-04-27T20:04:57.581Z,100812.48
2019-04-27T20:07:26.246Z,100820.58
2019-04-27T20:09:59.321Z,100814.34
2019-04-27T20:12:27.906Z,100828.82
2019-04-27T20:14:57.494Z,100827.47
2019-04-27T20:17:36.782Z,100836.91
2019-04-27T20:20:05.911Z,100842.31
2019-04-27T20:22:34.585Z,100848.55
2019-04-27T20:25:03.299Z,100850.04
2019-04-27T20:27:45.220Z,100854.92
2019-04-27T20:30:03.221Z,100858.50
2019-04-27T20:32:32.110Z,100856.27
2019-04-27T20:35:01.456Z,100852.73
2019-04-27T20:37:31.380Z,100855.80
2019-04-27T20:40:01.723Z,100856.27
2019-04-27T20:42:31.476Z,100860.47
2019-04-27T20:45:01.908Z,100860.83
2019-04-27T20:47:31.119Z,100859.59
2019-04-27T20:49:59.830Z,100868.92
2019-04-27T20:52:53.717Z,100864.52
2019-04-27T20:55:22.987Z,100863.16
2019-04-27T20:57:59.549Z,100866.22
2019-04-27T21:00:22.994Z,100865.86
2019-04-27T21:03:13.762Z,100867.69
2019-04-27T21:06:07.348Z,100865.47
2019-04-27T21:08:37.222Z,100860.58
2019-04-27T21:11:05.991Z,100867.21
2019-04-27T21:13:34.609Z,100862.77
2019-04-27T21:16:03.255Z,100866.34
2019-04-27T21:18:32.085Z,100863.76
2019-04-27T21:21:01.292Z,100869.16
2019-04-27T21:23:31.188Z,100871.84
2019-04-27T21:26:01.926Z,100879.94
2019-04-27T21:28:30.535Z,100874.19
2019-04-27T21:30:59.140Z,100875.06
2019-04-27T21:33:27.711Z,100881.80
2019-04-27T21:35:56.438Z,100882.28
2019-04-27T21:38:25.017Z,100880.92
2019-04-27T21:40:53.680Z,100878.73
2019-04-27T21:43:22.270Z,100879.58
2019-04-27T21:45:51.181Z,100882.28
2019-04-27T21:48:21.198Z,100890.37
2019-04-27T21:50:51.646Z,100888.18
2019-04-27T21:53:45.925Z,100895.40
2019-04-27T21:56:15.371Z,100900.80
2019-04-27T21:58:44.015Z,100902.14
2019-04-27T22:01:21.625Z,100901.30
2019-04-27T22:03:52.767Z,100910.23
2019-04-27T22:06:22.333Z,100911.22
2019-04-27T22:08:52.177Z,100912.57
2019-04-27T22:11:22.255Z,100911.22
2019-04-27T22:13:52.060Z,100899.09
2019-04-27T22:16:21.269Z,100907.32
2019-04-27T22:18:51.859Z,100903.75
2019-04-27T22:21:21.632Z,100904.73
2019-04-27T22:23:55.323Z,100915.05
2019-04-27T22:26:23.916Z,100909.30
2019-04-27T22:28:52.545Z,100907.07
2019-04-27T22:31:21.334Z,100910.64
2019-04-27T22:33:52.588Z,100908.05
2019-04-27T22:36:21.183Z,100906.23
2019-04-27T22:38:51.595Z,100908.05
2019-04-27T22:41:31.404Z,100904.52
2019-04-27T22:44:18.072Z,100895.55
2019-04-27T22:46:47.820Z,100900.95
2019-04-27T22:49:16.405Z,100896.91
2019-04-27T22:51:45.060Z,100889.80
2019-04-27T22:54:13.754Z,100890.16
2019-04-27T22:56:43.342Z,100892.97
2019-04-27T22:59:21.447Z,100890.78
2019-04-27T23:02:12.089Z,100886.38
2019-04-27T23:04:44.562Z,100893.56
2019-04-27T23:07:13.544Z,100900.81
2019-04-27T23:09:42.875Z,100896.77
2019-04-27T23:12:12.363Z,100905.33
2019-04-27T23:14:41.570Z,100901.80
2019-04-27T23:17:24.140Z,100906.83
2019-04-27T23:19:52.837Z,100902.78
2019-04-27T23:22:21.501Z,100897.39
2019-04-27T23:24:51.892Z,100895.16
2019-04-27T23:27:21.630Z,100898.01
2019-04-27T23:29:51.479Z,100896.15
2019-04-27T23:32:31.640Z,100886.86
2019-04-27T23:35:00.377Z,100893.59
2019-04-27T23:37:29.128Z,100890.91
2019-04-27T23:39:57.816Z,100894.59
2019-04-27T23:42:26.412Z,100898.63
2019-04-27T23:44:54.977Z,100896.88
2019-04-27T23:47:23.649Z,100896.52
2019-04-27T23:49:52.261Z,100892.00
2019-04-27T23:52:25.945Z,100896.05
2019-04-27T23:54:54.534Z,100895.68
2019-04-27T23:57:23.175Z,100898.86
2019-04-27T23:59:51.747Z,100888.94
